Time;durP1;ratioP1;P1;durP2;ratioP2;P2;SDS_P1;SDS_P2;PMS_P1;PMS_P2;Temp;Humidity;BMP_temperature;BMP_pressure;BME280_temperature;BME280_humidity;BME280_pressure;Samples;Min_cycle;Max_cycle;Signal;HPM_P1;HPM_P2
2021/12/12 00:00:57;;;;;;;19.52;10.18;;;;;;;;;;5040070;28;20093;-78
2021/12/12 00:03:37;;;;;;;24.35;9.75;;;;;;;;;;5036542;28;20133;-79
2021/12/12 00:06:13;;;;;;;21.45;9.95;;;;;;;;;;5025620;28;20038;-78
2021/12/12 00:08:39;;;;;;;19.02;10.15;;;;;;;;;;5039064;28;20041;-77
2021/12/12 00:11:09;;;;;;;19.52;9.25;;;;;;;;;;5040268;28;20029;-78
2021/12/12 00:13:43;;;;;;;19.77;10.13;;;;;;;;;;5022188;28;20124;-78
2021/12/12 00:16:09;;;;;;;18.30;9.25;;;;;;;;;;5039720;28;20099;-78
2021/12/12 00:18:36;;;;;;;18.75;9.18;;;;;;;;;;5023790;28;20041;-78
2021/12/12 00:21:02;;;;;;;24.75;8.48;;;;;;;;;;5042507;28;20060;-78
2021/12/12 00:23:28;;;;;;;20.65;9.00;;;;;;;;;;5026820;28;20037;-79
2021/12/12 00:25:54;;;;;;;22.05;8.40;;;;;;;;;;5042368;28;20056;-77
2021/12/12 00:28:21;;;;;;;17.95;8.25;;;;;;;;;;5026149;28;20041;-77
2021/12/12 00:30:48;;;;;;;19.65;8.60;;;;;;;;;;5042397;28;20065;-77
2021/12/12 00:33:15;;;;;;;19.70;8.05;;;;;;;;;;5039006;28;20038;-78
2021/12/12 00:35:41;;;;;;;16.58;8.07;;;;;;;;;;5038781;28;20042;-79
2021/12/12 00:38:09;;;;;;;21.08;7.97;;;;;;;;;;5038525;28;20045;-78
2021/12/12 00:40:36;;;;;;;23.45;7.68;;;;;;;;;;5038971;28;20080;-78
2021/12/12 00:43:05;;;;;;;17.83;7.45;;;;;;;;;;5021648;28;20037;-78
2021/12/12 00:45:31;;;;;;;20.58;7.63;;;;;;;;;;5022163;28;20129;-78
2021/12/12 00:47:57;;;;;;;14.90;6.88;;;;;;;;;;5021369;28;20077;-78
2021/12/12 00:50:30;;;;;;;21.40;8.13;;;;;;;;;;5038076;28;20041;-78
2021/12/12 00:52:56;;;;;;;17.55;7.95;;;;;;;;;;5021859;28;20037;-78
2021/12/12 00:55:22;;;;;;;17.30;7.50;;;;;;;;;;5037806;28;20437;-78
2021/12/12 00:57:52;;;;;;;17.95;7.20;;;;;;;;;;5039034;28;20041;-78
2021/12/12 01:00:19;;;;;;;22.85;7.40;;;;;;;;;;5039248;28;20045;-78
2021/12/12 01:02:45;;;;;;;15.77;7.65;;;;;;;;;;5037485;28;20064;-79
2021/12/12 01:05:11;;;;;;;18.90;7.65;;;;;;;;;;5038670;28;20033;-79
2021/12/12 01:07:38;;;;;;;14.70;7.15;;;;;;;;;;5038491;28;20044;-78
2021/12/12 01:10:10;;;;;;;15.88;6.88;;;;;;;;;;5038290;28;20041;-79
2021/12/12 01:12:36;;;;;;;13.07;6.70;;;;;;;;;;5021252;28;20107;-79
2021/12/12 01:15:11;;;;;;;14.98;6.38;;;;;;;;;;5038989;28;20715;-78
2021/12/12 01:17:39;;;;;;;17.42;6.53;;;;;;;;;;5045208;28;20183;-79
2021/12/12 01:20:23;;;;;;;14.35;6.25;;;;;;;;;;5043405;28;20045;-79
2021/12/12 01:22:49;;;;;;;15.90;6.30;;;;;;;;;;5020573;28;20049;-78
2021/12/12 01:25:23;;;;;;;13.60;5.95;;;;;;;;;;5038033;28;20041;-78
2021/12/12 01:27:49;;;;;;;15.02;6.20;;;;;;;;;;5037803;28;20114;-78
2021/12/12 01:30:15;;;;;;;13.40;5.72;;;;;;;;;;5037953;28;20048;-79
2021/12/12 01:32:41;;;;;;;17.30;5.28;;;;;;;;;;5021732;28;20052;-79
2021/12/12 01:35:14;;;;;;;13.82;5.60;;;;;;;;;;5037637;28;20068;-80
2021/12/12 01:37:43;;;;;;;13.57;5.68;;;;;;;;;;5037567;28;20045;-79
2021/12/12 01:40:11;;;;;;;12.95;4.78;;;;;;;;;;5023638;28;20064;-80
2021/12/12 01:42:39;;;;;;;14.23;5.40;;;;;;;;;;5039443;28;20043;-79
2021/12/12 01:45:13;;;;;;;13.90;4.97;;;;;;;;;;5038353;28;20040;-80
2021/12/12 01:47:43;;;;;;;13.65;4.88;;;;;;;;;;5020954;28;20045;-80
2021/12/12 01:50:11;;;;;;;13.77;5.13;;;;;;;;;;5022184;28;20110;-79
2021/12/12 01:52:37;;;;;;;12.52;4.53;;;;;;;;;;5047134;28;20060;-80
2021/12/12 01:55:22;;;;;;;10.82;4.32;;;;;;;;;;5030526;28;20045;-78
2021/12/12 01:57:48;;;;;;;12.27;4.28;;;;;;;;;;5031262;28;20068;-78
2021/12/12 02:00:26;;;;;;;14.60;5.13;;;;;;;;;;5040422;28;20041;-80
2021/12/12 02:02:52;;;;;;;15.75;4.78;;;;;;;;;;5039119;28;20037;-80
2021/12/12 02:05:18;;;;;;;15.52;5.07;;;;;;;;;;5037325;28;20314;-79
2021/12/12 02:07:45;;;;;;;11.77;4.70;;;;;;;;;;5039463;28;20112;-79
2021/12/12 02:10:14;;;;;;;12.05;4.85;;;;;;;;;;5028666;28;20037;-79
2021/12/12 02:12:40;;;;;;;12.70;4.65;;;;;;;;;;5044529;28;20057;-79
2021/12/12 02:15:09;;;;;;;12.10;4.43;;;;;;;;;;5044244;28;20468;-78
2021/12/12 02:17:41;;;;;;;9.70;4.15;;;;;;;;;;5042440;28;20118;-79
2021/12/12 02:20:38;;;;;;;15.20;4.50;;;;;;;;;;5021489;28;20080;-80
2021/12/12 02:36:45;;;;;;;13.27;4.88;;;;;;;;;;5037013;28;20042;-79
2021/12/12 02:39:17;;;;;;;12.57;4.80;;;;;;;;;;5037122;28;20119;-78
2021/12/12 02:41:47;;;;;;;13.85;4.80;;;;;;;;;;5037645;28;20057;-80
2021/12/12 02:44:13;;;;;;;12.15;4.55;;;;;;;;;;5037483;28;20037;-80
2021/12/12 02:46:41;;;;;;;13.32;4.68;;;;;;;;;;5039142;28;20109;-80
2021/12/12 02:49:22;;;;;;;9.05;4.30;;;;;;;;;;5036218;28;20037;-80
2021/12/12 02:51:48;;;;;;;10.73;4.45;;;;;;;;;;5022028;28;20037;-79
2021/12/12 02:54:14;;;;;;;10.73;4.40;;;;;;;;;;5020573;28;20056;-79
2021/12/12 02:56:41;;;;;;;12.30;4.57;;;;;;;;;;5038547;28;20068;-82
2021/12/12 02:59:09;;;;;;;11.35;4.25;;;;;;;;;;5020312;28;20037;-78
2021/12/12 03:01:40;;;;;;;13.68;4.78;;;;;;;;;;5021152;28;20037;-78
2021/12/12 03:04:06;;;;;;;12.85;4.78;;;;;;;;;;5036648;28;20132;-81
2021/12/12 03:06:33;;;;;;;11.95;4.90;;;;;;;;;;5020278;28;20077;-79
2021/12/12 03:09:00;;;;;;;15.27;4.63;;;;;;;;;;5020276;28;20045;-81
2021/12/12 03:11:27;;;;;;;10.82;4.40;;;;;;;;;;5037649;28;20049;-78
2021/12/12 03:13:54;;;;;;;8.20;4.22;;;;;;;;;;5023934;28;20373;-81
2021/12/12 03:16:20;;;;;;;16.35;5.03;;;;;;;;;;5041147;28;20045;-78
2021/12/12 03:18:46;;;;;;;15.52;4.43;;;;;;;;;;5024269;28;20459;-79
2021/12/12 03:21:20;;;;;;;13.23;4.93;;;;;;;;;;5023279;28;20045;-80
2021/12/12 03:23:47;;;;;;;12.38;4.47;;;;;;;;;;5023477;28;20097;-81
2021/12/12 03:26:13;;;;;;;11.32;4.18;;;;;;;;;;5022068;28;20034;-78
2021/12/12 03:28:40;;;;;;;18.67;4.78;;;;;;;;;;5022702;28;20045;-77
2021/12/12 03:31:09;;;;;;;12.05;4.50;;;;;;;;;;5042507;28;20045;-82
2021/12/12 03:33:35;;;;;;;15.90;4.72;;;;;;;;;;5040949;28;20042;-77
2021/12/12 03:36:03;;;;;;;12.30;4.97;;;;;;;;;;5023071;28;20041;-81
2021/12/12 03:38:29;;;;;;;12.93;4.75;;;;;;;;;;5042254;28;20420;-78
2021/12/12 03:40:56;;;;;;;10.27;4.05;;;;;;;;;;5039999;28;20038;-81
2021/12/12 03:43:22;;;;;;;11.63;4.03;;;;;;;;;;5041837;28;20433;-78
2021/12/12 03:45:48;;;;;;;16.95;4.32;;;;;;;;;;5041705;28;20098;-82
2021/12/12 03:48:31;;;;;;;12.27;4.47;;;;;;;;;;5040275;28;20124;-79
2021/12/12 03:50:57;;;;;;;13.05;4.45;;;;;;;;;;5040187;28;20041;-80
2021/12/12 03:53:25;;;;;;;11.32;4.10;;;;;;;;;;5039941;28;20829;-78
2021/12/12 03:55:51;;;;;;;13.93;3.90;;;;;;;;;;5023353;28;20051;-78
2021/12/12 03:58:17;;;;;;;11.98;4.28;;;;;;;;;;5040533;28;20065;-77
2021/12/12 04:00:45;;;;;;;13.40;4.43;;;;;;;;;;5039298;28;20365;-79
2021/12/12 04:03:12;;;;;;;14.48;4.55;;;;;;;;;;5040272;28;20060;-79
2021/12/12 04:05:38;;;;;;;9.27;4.30;;;;;;;;;;5038898;28;20048;-78
2021/12/12 04:08:04;;;;;;;11.07;4.45;;;;;;;;;;5040772;28;20072;-78
2021/12/12 04:10:30;;;;;;;14.23;4.38;;;;;;;;;;5022887;28;20055;-81
2021/12/12 04:12:56;;;;;;;11.73;4.28;;;;;;;;;;5023441;28;20373;-79
2021/12/12 04:15:23;;;;;;;13.48;4.47;;;;;;;;;;5040768;28;20045;-82
2021/12/12 04:17:49;;;;;;;16.17;4.63;;;;;;;;;;5040017;28;20096;-79
2021/12/12 04:20:17;;;;;;;14.32;4.55;;;;;;;;;;5022469;28;20473;-78
2021/12/12 04:22:43;;;;;;;17.05;4.78;;;;;;;;;;5023670;28;20108;-81
2021/12/12 04:25:09;;;;;;;12.88;4.65;;;;;;;;;;5039870;28;20065;-79
2021/12/12 04:27:35;;;;;;;16.05;4.63;;;;;;;;;;5040612;28;20060;-81
2021/12/12 04:30:04;;;;;;;16.10;4.65;;;;;;;;;;5037984;28;20037;-78
2021/12/12 04:32:30;;;;;;;10.57;4.25;;;;;;;;;;5022561;28;20049;-82
2021/12/12 04:34:57;;;;;;;10.77;4.95;;;;;;;;;;5036800;28;20052;-77
2021/12/12 04:37:23;;;;;;;11.02;4.40;;;;;;;;;;5038866;28;20038;-78
2021/12/12 04:39:52;;;;;;;13.07;4.45;;;;;;;;;;5041704;28;20450;-81
2021/12/12 04:42:20;;;;;;;17.10;4.78;;;;;;;;;;5040638;28;20099;-82
2021/12/12 04:44:47;;;;;;;15.98;4.85;;;;;;;;;;5022416;28;20339;-80
2021/12/12 04:50:21;;;;;;;20.50;5.20;;;;;;;;;;5038423;28;20038;-78
2021/12/12 04:52:59;;;;;;;11.45;4.90;;;;;;;;;;5021502;28;20034;-78
2021/12/12 04:55:34;;;;;;;14.10;4.68;;;;;;;;;;5042921;28;20037;-82
2021/12/12 04:58:19;;;;;;;17.20;5.47;;;;;;;;;;5047026;28;20045;-79
2021/12/12 05:00:50;;;;;;;17.13;4.93;;;;;;;;;;5037827;28;20091;-82
2021/12/12 05:03:17;;;;;;;15.60;5.55;;;;;;;;;;5038334;28;20053;-79
2021/12/12 05:05:46;;;;;;;19.58;5.47;;;;;;;;;;5022270;28;20099;-80
2021/12/12 05:08:14;;;;;;;15.50;5.10;;;;;;;;;;5022709;28;20052;-78
2021/12/12 05:10:42;;;;;;;16.10;5.80;;;;;;;;;;5037892;28;20155;-81
2021/12/12 05:13:16;;;;;;;12.45;4.63;;;;;;;;;;5022965;28;20052;-81
2021/12/12 05:15:44;;;;;;;18.23;5.45;;;;;;;;;;5040177;28;20041;-81
2021/12/12 05:18:19;;;;;;;12.23;5.35;;;;;;;;;;5039176;28;20072;-77
2021/12/12 05:20:46;;;;;;;14.85;5.20;;;;;;;;;;5037254;28;20053;-78
2021/12/12 05:23:13;;;;;;;17.20;5.70;;;;;;;;;;5036458;28;20042;-78
2021/12/12 05:25:44;;;;;;;22.92;6.07;;;;;;;;;;5036809;28;20064;-78
2021/12/12 05:28:10;;;;;;;18.00;4.95;;;;;;;;;;5036140;28;20469;-78
2021/12/12 05:30:36;;;;;;;14.32;5.00;;;;;;;;;;5019357;28;20073;-78
2021/12/12 05:33:02;;;;;;;14.93;5.40;;;;;;;;;;5036120;28;20049;-78
2021/12/12 05:35:29;;;;;;;18.17;4.60;;;;;;;;;;5036382;28;20046;-77
2021/12/12 05:37:57;;;;;;;16.98;5.50;;;;;;;;;;5020412;28;20051;-77
2021/12/12 05:40:23;;;;;;;16.75;5.85;;;;;;;;;;5036060;28;20030;-77
2021/12/12 05:42:52;;;;;;;12.75;5.50;;;;;;;;;;5039179;28;20128;-77
2021/12/12 05:45:18;;;;;;;12.70;5.28;;;;;;;;;;5039275;28;20426;-77
2021/12/12 05:47:44;;;;;;;11.27;4.97;;;;;;;;;;5039665;28;20049;-77
2021/12/12 05:50:11;;;;;;;13.73;5.82;;;;;;;;;;5037549;28;20048;-78
2021/12/12 05:52:37;;;;;;;15.35;5.95;;;;;;;;;;5037494;28;20334;-78
2021/12/12 05:55:04;;;;;;;16.20;5.40;;;;;;;;;;5019768;28;20487;-77
2021/12/12 05:57:30;;;;;;;21.58;5.95;;;;;;;;;;5035541;28;20440;-79
2021/12/12 05:59:56;;;;;;;13.43;5.50;;;;;;;;;;5045837;28;20037;-80
2021/12/12 06:02:22;;;;;;;14.95;5.93;;;;;;;;;;5051125;28;20041;-81
2021/12/12 06:04:48;;;;;;;20.10;6.22;;;;;;;;;;5025884;28;20041;-81
2021/12/12 06:07:17;;;;;;;14.93;5.60;;;;;;;;;;5042092;28;20040;-81
2021/12/12 06:09:44;;;;;;;15.65;6.18;;;;;;;;;;5025687;28;20112;-82
2021/12/12 06:12:10;;;;;;;13.40;5.68;;;;;;;;;;5024096;28;20080;-79
2021/12/12 06:14:36;;;;;;;15.48;6.18;;;;;;;;;;5020708;28;20041;-80
2021/12/12 06:17:04;;;;;;;18.60;6.18;;;;;;;;;;5024355;28;20048;-81
2021/12/12 06:19:31;;;;;;;15.50;6.00;;;;;;;;;;5038825;28;20046;-79
2021/12/12 06:21:58;;;;;;;14.50;6.35;;;;;;;;;;5037606;28;20030;-80
2021/12/12 06:24:25;;;;;;;18.73;6.47;;;;;;;;;;5039658;28;20645;-79
2021/12/12 06:26:50;;;;;;;13.27;5.93;;;;;;;;;;5027017;28;20033;-81
2021/12/12 06:29:16;;;;;;;14.65;6.20;;;;;;;;;;5043309;28;20048;-78
2021/12/12 06:31:44;;;;;;;16.10;7.03;;;;;;;;;;5023764;28;20424;-77
2021/12/12 06:34:10;;;;;;;14.40;6.78;;;;;;;;;;5038744;28;20049;-78
2021/12/12 06:36:36;;;;;;;15.02;5.60;;;;;;;;;;5042185;28;20465;-80
2021/12/12 06:39:03;;;;;;;19.17;5.97;;;;;;;;;;5053572;28;20045;-80
2021/12/12 06:41:29;;;;;;;15.27;6.07;;;;;;;;;;5047134;28;20092;-80
2021/12/12 06:43:56;;;;;;;12.10;5.68;;;;;;;;;;5042420;28;20034;-81
2021/12/12 06:46:22;;;;;;;13.63;6.32;;;;;;;;;;5043907;28;20040;-81
2021/12/12 06:48:48;;;;;;;12.90;5.78;;;;;;;;;;5047424;28;20120;-77
2021/12/12 06:51:14;;;;;;;11.40;5.72;;;;;;;;;;5042393;28;20369;-77
2021/12/12 06:53:41;;;;;;;10.55;6.40;;;;;;;;;;5041939;28;20060;-77
2021/12/12 06:56:08;;;;;;;14.05;5.65;;;;;;;;;;5024540;28;20037;-76
2021/12/12 06:58:34;;;;;;;11.98;5.30;;;;;;;;;;5041087;28;20377;-79
2021/12/12 07:01:11;;;;;;;9.50;5.05;;;;;;;;;;5040383;28;20045;-80
2021/12/12 07:03:38;;;;;;;11.98;5.50;;;;;;;;;;5041117;28;20037;-81
2021/12/12 07:06:04;;;;;;;9.63;5.18;;;;;;;;;;5041311;28;20049;-78
2021/12/12 07:08:30;;;;;;;8.73;5.18;;;;;;;;;;5046479;28;20105;-78
2021/12/12 07:10:56;;;;;;;12.48;6.03;;;;;;;;;;5024188;28;20128;-79
2021/12/12 07:13:22;;;;;;;11.20;4.78;;;;;;;;;;5023383;28;20052;-77
2021/12/12 07:15:49;;;;;;;8.30;5.15;;;;;;;;;;5040890;28;20438;-79
2021/12/12 07:18:16;;;;;;;8.90;5.55;;;;;;;;;;5023206;28;20052;-76
2021/12/12 07:20:42;;;;;;;11.30;5.20;;;;;;;;;;5037994;28;20369;-78
2021/12/12 07:23:09;;;;;;;7.10;4.57;;;;;;;;;;5040244;28;20048;-79
2021/12/12 07:25:35;;;;;;;8.95;5.00;;;;;;;;;;5044720;28;20037;-80
2021/12/12 07:28:01;;;;;;;10.77;4.65;;;;;;;;;;5024639;28;20059;-80
2021/12/12 07:30:27;;;;;;;6.88;4.00;;;;;;;;;;5024674;28;20076;-80
2021/12/12 07:32:53;;;;;;;6.85;4.18;;;;;;;;;;5041302;28;20041;-79
2021/12/12 07:35:19;;;;;;;9.43;4.28;;;;;;;;;;5041763;28;20087;-80
2021/12/12 07:37:45;;;;;;;7.60;3.67;;;;;;;;;;5041442;28;20038;-80
2021/12/12 07:40:11;;;;;;;5.50;3.45;;;;;;;;;;5041852;28;20448;-79
2021/12/12 07:42:37;;;;;;;6.07;3.45;;;;;;;;;;5040863;28;20080;-77
2021/12/12 07:45:04;;;;;;;6.68;3.60;;;;;;;;;;5040180;28;20030;-78
2021/12/12 07:47:30;;;;;;;4.63;2.92;;;;;;;;;;5024424;28;20044;-77
2021/12/12 07:49:56;;;;;;;5.75;2.88;;;;;;;;;;5024174;28;20025;-78
2021/12/12 07:52:23;;;;;;;4.30;2.63;;;;;;;;;;5044093;28;20034;-80
2021/12/12 07:54:49;;;;;;;7.78;3.00;;;;;;;;;;5046597;28;20022;-80
2021/12/12 07:57:15;;;;;;;5.38;3.22;;;;;;;;;;5058885;28;20065;-81
2021/12/12 07:59:41;;;;;;;5.93;3.00;;;;;;;;;;5039921;28;20049;-79
2021/12/12 08:02:07;;;;;;;6.70;3.05;;;;;;;;;;5055446;28;20038;-77
2021/12/12 08:04:33;;;;;;;5.38;3.33;;;;;;;;;;5052884;28;20052;-77
2021/12/12 08:07:00;;;;;;;8.23;3.13;;;;;;;;;;5054044;28;20025;-78
2021/12/12 08:09:26;;;;;;;5.68;3.15;;;;;;;;;;5053785;28;20438;-77
2021/12/12 08:11:53;;;;;;;5.57;3.05;;;;;;;;;;5043075;28;20052;-80
2021/12/12 08:14:20;;;;;;;6.30;3.05;;;;;;;;;;5044196;28;20116;-78
2021/12/12 08:16:46;;;;;;;5.00;3.08;;;;;;;;;;5043986;28;20373;-78
2021/12/12 08:19:12;;;;;;;5.25;2.97;;;;;;;;;;5025783;28;20120;-78
2021/12/12 08:21:38;;;;;;;5.63;2.90;;;;;;;;;;5022961;28;20045;-77
2021/12/12 08:24:06;;;;;;;6.72;3.15;;;;;;;;;;5039783;28;20033;-78
2021/12/12 08:26:32;;;;;;;6.20;2.95;;;;;;;;;;5023291;28;20034;-78
2021/12/12 08:28:58;;;;;;;5.70;3.10;;;;;;;;;;5022352;28;20045;-77
2021/12/12 08:31:25;;;;;;;4.85;2.65;;;;;;;;;;5040529;28;20037;-78
2021/12/12 08:33:51;;;;;;;3.67;2.65;;;;;;;;;;5027190;28;20168;-78
2021/12/12 08:36:17;;;;;;;5.18;2.80;;;;;;;;;;5025994;28;20064;-78
2021/12/12 08:38:43;;;;;;;5.07;2.70;;;;;;;;;;5045006;28;20049;-78
2021/12/12 08:41:09;;;;;;;4.75;2.60;;;;;;;;;;5048529;28;20037;-79
2021/12/12 08:43:35;;;;;;;4.93;2.53;;;;;;;;;;5045273;28;20338;-78
2021/12/12 08:46:03;;;;;;;2.88;2.00;;;;;;;;;;5029519;28;20037;-79
2021/12/12 08:48:31;;;;;;;5.22;2.58;;;;;;;;;;5038538;28;20095;-78
2021/12/12 08:50:58;;;;;;;3.95;2.53;;;;;;;;;;5043509;28;20057;-77
2021/12/12 08:53:24;;;;;;;5.03;2.30;;;;;;;;;;5042257;28;20029;-77
2021/12/12 08:55:51;;;;;;;5.55;2.22;;;;;;;;;;5043995;28;20080;-79
2021/12/12 08:58:18;;;;;;;5.63;2.10;;;;;;;;;;5043564;28;20105;-79
2021/12/12 09:00:55;;;;;;;3.38;2.30;;;;;;;;;;5045606;28;20091;-78
2021/12/12 09:03:26;;;;;;;3.92;2.30;;;;;;;;;;5044918;28;20037;-77
2021/12/12 09:05:52;;;;;;;4.07;2.20;;;;;;;;;;5042900;28;20037;-79
2021/12/12 09:08:22;;;;;;;3.83;2.08;;;;;;;;;;5044839;28;20041;-78
2021/12/12 09:10:55;;;;;;;3.72;2.28;;;;;;;;;;5042759;28;20045;-81
2021/12/12 09:13:26;;;;;;;3.30;1.83;;;;;;;;;;5043346;28;20457;-79
2021/12/12 09:16:05;;;;;;;4.40;2.10;;;;;;;;;;5042226;28;20049;-79
2021/12/12 09:18:37;;;;;;;4.10;2.35;;;;;;;;;;5047990;28;20067;-79
2021/12/12 09:21:10;;;;;;;3.33;2.20;;;;;;;;;;5046865;28;20139;-79
2021/12/12 09:23:41;;;;;;;3.88;2.53;;;;;;;;;;5043537;28;20113;-79
2021/12/12 09:26:21;;;;;;;4.15;2.33;;;;;;;;;;5042387;28;20033;-80
2021/12/12 09:29:06;;;;;;;4.07;2.15;;;;;;;;;;5025088;28;20430;-80
2021/12/12 09:31:34;;;;;;;3.55;2.30;;;;;;;;;;5040803;28;20048;-80
2021/12/12 09:34:09;;;;;;;4.00;2.38;;;;;;;;;;5044424;28;20057;-80
2021/12/12 09:36:38;;;;;;;3.83;2.33;;;;;;;;;;5043448;28;20042;-79
2021/12/12 09:39:06;;;;;;;3.28;2.13;;;;;;;;;;5041798;28;20428;-78
2021/12/12 09:41:49;;;;;;;4.50;2.40;;;;;;;;;;5043583;28;20060;-81
2021/12/12 09:44:31;;;;;;;4.32;2.08;;;;;;;;;;5043840;28;20064;-81
2021/12/12 09:47:12;;;;;;;8.00;2.08;;;;;;;;;;5040983;28;20038;-79
2021/12/12 09:52:44;;;;;;;4.07;2.25;;;;;;;;;;5048692;28;20037;-81
2021/12/12 09:55:10;;;;;;;3.65;2.38;;;;;;;;;;5042961;28;20056;-81
2021/12/12 09:57:54;;;;;;;3.05;2.15;;;;;;;;;;5042409;28;20041;-81
2021/12/12 10:00:44;;;;;;;7.10;2.22;;;;;;;;;;5050353;28;20033;-83
2021/12/12 10:03:15;;;;;;;4.32;2.33;;;;;;;;;;5040217;28;20041;-81
2021/12/12 10:05:41;;;;;;;5.32;2.50;;;;;;;;;;5043817;28;20044;-82
2021/12/12 10:08:29;;;;;;;2.78;2.05;;;;;;;;;;5043492;28;20065;-82
2021/12/12 10:11:07;;;;;;;3.78;2.30;;;;;;;;;;5025956;28;20521;-82
2021/12/12 10:13:36;;;;;;;3.83;2.20;;;;;;;;;;5043921;28;20041;-80
2021/12/12 10:16:05;;;;;;;4.82;2.70;;;;;;;;;;5033122;28;20037;-83
2021/12/12 10:19:01;;;;;;;2.92;1.92;;;;;;;;;;5037897;28;20036;-80
2021/12/12 10:21:30;;;;;;;5.15;3.10;;;;;;;;;;5058062;28;20128;-77
2021/12/12 10:24:06;;;;;;;5.80;4.07;;;;;;;;;;5051078;28;20071;-80
2021/12/12 10:26:34;;;;;;;5.22;2.90;;;;;;;;;;5048024;28;20041;-80
2021/12/12 10:29:01;;;;;;;5.72;2.65;;;;;;;;;;5028404;28;20053;-79
2021/12/12 10:31:31;;;;;;;4.63;2.80;;;;;;;;;;5044550;28;20037;-81
2021/12/12 10:34:05;;;;;;;5.55;3.75;;;;;;;;;;5030823;28;20033;-80
2021/12/12 10:36:36;;;;;;;12.52;4.60;;;;;;;;;;5029113;28;20077;-79
2021/12/12 10:39:07;;;;;;;6.15;3.88;;;;;;;;;;5044592;28;20426;-80
2021/12/12 10:41:40;;;;;;;7.50;3.33;;;;;;;;;;5044225;28;20417;-79
2021/12/12 10:44:06;;;;;;;;;;;;;;;;;;5045720;28;20400;-80
2021/12/12 10:46:32;;;;;;;7.28;3.92;;;;;;;;;;5045869;28;19909;-81
2021/12/12 10:49:13;;;;;;;5.57;3.55;;;;;;;;;;5046281;28;20049;-80
2021/12/12 10:51:40;;;;;;;7.18;3.72;;;;;;;;;;5028149;28;20046;-80
2021/12/12 10:54:13;;;;;;;6.35;4.13;;;;;;;;;;5045677;28;20042;-80
2021/12/12 10:56:40;;;;;;;6.83;4.40;;;;;;;;;;5045673;28;20042;-80
2021/12/12 10:59:19;;;;;;;7.07;4.60;;;;;;;;;;5046753;28;20041;-81
2021/12/12 11:01:45;;;;;;;6.55;4.25;;;;;;;;;;5048302;28;20029;-78
2021/12/12 11:04:18;;;;;;;8.68;4.53;;;;;;;;;;5026706;28;20112;-78
2021/12/12 11:06:54;;;;;;;6.63;4.07;;;;;;;;;;5030644;28;20037;-80
2021/12/12 11:09:39;;;;;;;10.95;4.32;;;;;;;;;;5059359;28;20071;-78
2021/12/12 11:12:12;;;;;;;8.15;4.70;;;;;;;;;;5047687;28;20045;-78
2021/12/12 11:15:19;;;;;;;9.27;5.03;;;;;;;;;;5043175;28;20042;-79
2021/12/12 11:17:46;;;;;;;6.93;4.20;;;;;;;;;;5003260;28;20061;-79
2021/12/12 11:20:31;;;;;;;8.90;4.90;;;;;;;;;;4971386;28;20082;-80
2021/12/12 11:23:03;;;;;;;6.60;4.30;;;;;;;;;;5022608;28;20110;-80
2021/12/12 11:25:40;;;;;;;7.78;4.13;;;;;;;;;;5043602;28;20057;-80
2021/12/12 11:28:14;;;;;;;7.22;4.40;;;;;;;;;;5028433;28;20362;-79
2021/12/12 11:30:44;;;;;;;6.25;3.90;;;;;;;;;;5049457;28;20097;-79
2021/12/12 11:33:11;;;;;;;5.10;3.63;;;;;;;;;;5044696;28;20049;-77
2021/12/12 11:35:37;;;;;;;6.47;3.90;;;;;;;;;;5042327;28;20041;-80
2021/12/12 11:38:12;;;;;;;5.10;3.33;;;;;;;;;;5026848;28;20045;-80
2021/12/12 11:40:47;;;;;;;11.57;6.20;;;;;;;;;;5027425;28;20092;-80
2021/12/12 11:43:25;;;;;;;6.43;3.63;;;;;;;;;;5027653;28;20081;-82
2021/12/12 11:46:01;;;;;;;4.78;3.20;;;;;;;;;;5027791;28;20428;-79
2021/12/12 11:48:36;;;;;;;7.55;3.20;;;;;;;;;;5027207;28;20373;-81
2021/12/12 11:51:08;;;;;;;5.15;3.13;;;;;;;;;;5026579;28;20045;-80
2021/12/12 11:53:41;;;;;;;7.95;3.28;;;;;;;;;;5042336;28;20047;-80
2021/12/12 11:56:45;;;;;;;6.88;3.28;;;;;;;;;;5056980;28;20067;-82
2021/12/12 11:59:11;;;;;;;6.60;2.65;;;;;;;;;;5018098;28;20361;-80
2021/12/12 12:01:49;;;;;;;7.35;3.90;;;;;;;;;;5044114;28;20456;-81
2021/12/12 12:04:34;;;;;;;3.55;2.53;;;;;;;;;;5044428;28;20117;-81
2021/12/12 12:07:03;;;;;;;4.25;2.67;;;;;;;;;;5044764;28;20049;-83
2021/12/12 12:09:42;;;;;;;6.40;2.47;;;;;;;;;;5045272;28;20049;-80
2021/12/12 12:12:18;;;;;;;6.22;2.35;;;;;;;;;;5045946;28;20109;-82
2021/12/12 12:14:45;;;;;;;3.55;2.53;;;;;;;;;;5044756;28;20043;-81
2021/12/12 12:17:23;;;;;;;4.90;2.97;;;;;;;;;;5044338;28;20033;-81
2021/12/12 12:20:12;;;;;;;4.20;2.50;;;;;;;;;;5046222;28;20056;-81
2021/12/12 12:22:43;;;;;;;5.00;3.00;;;;;;;;;;5044555;28;20041;-82
2021/12/12 12:25:21;;;;;;;3.53;2.47;;;;;;;;;;5044880;28;20518;-83
2021/12/12 12:27:55;;;;;;;4.30;2.60;;;;;;;;;;5043235;28;20083;-80
2021/12/12 12:30:39;;;;;;;3.90;2.40;;;;;;;;;;5043885;28;20361;-79
2021/12/12 12:33:08;;;;;;;6.03;2.58;;;;;;;;;;5044398;28;20033;-81
2021/12/12 12:35:53;;;;;;;5.40;2.80;;;;;;;;;;5044742;28;20419;-81
2021/12/12 12:38:38;;;;;;;3.03;2.30;;;;;;;;;;5045420;28;20057;-81
2021/12/12 12:41:23;;;;;;;2.45;1.70;;;;;;;;;;5045526;28;20437;-81
2021/12/12 12:44:07;;;;;;;3.17;1.95;;;;;;;;;;5051632;28;20088;-83
2021/12/12 12:46:52;;;;;;;3.10;2.05;;;;;;;;;;5057393;28;20052;-82
2021/12/12 12:49:38;;;;;;;4.88;2.30;;;;;;;;;;5044259;28;20052;-82
2021/12/12 12:52:30;;;;;;;3.55;2.10;;;;;;;;;;5043759;28;20053;-83
2021/12/12 12:55:15;;;;;;;5.28;2.85;;;;;;;;;;5027916;28;20037;-81
2021/12/12 12:57:41;;;;;;;3.05;2.00;;;;;;;;;;5042255;28;20033;-82
2021/12/12 13:00:12;;;;;;;3.97;1.90;;;;;;;;;;5025051;28;20067;-81
2021/12/12 13:03:00;;;;;;;2.67;1.70;;;;;;;;;;5044786;28;20116;-82
2021/12/12 13:05:49;;;;;;;3.80;1.83;;;;;;;;;;5046791;28;20037;-82
2021/12/12 13:08:27;;;;;;;4.60;2.10;;;;;;;;;;5043843;28;20045;-81
2021/12/12 13:10:58;;;;;;;3.78;1.60;;;;;;;;;;5046979;28;20072;-82
2021/12/12 13:13:30;;;;;;;2.50;1.75;;;;;;;;;;5045736;28;20093;-80
2021/12/12 13:15:56;;;;;;;4.03;2.38;;;;;;;;;;5043017;28;20064;-81
2021/12/12 13:18:40;;;;;;;4.03;1.80;;;;;;;;;;5045285;28;20056;-83
2021/12/12 13:21:16;;;;;;;4.28;1.80;;;;;;;;;;5048807;28;20046;-80
2021/12/12 13:23:55;;;;;;;5.05;2.47;;;;;;;;;;5032568;28;20044;-81
2021/12/12 13:26:27;;;;;;;5.80;2.33;;;;;;;;;;5031698;28;20041;-83
2021/12/12 13:29:03;;;;;;;4.63;2.33;;;;;;;;;;5048065;28;20045;-81
2021/12/12 13:31:39;;;;;;;3.55;2.10;;;;;;;;;;5034529;28;20045;-79
2021/12/12 13:34:11;;;;;;;3.40;2.10;;;;;;;;;;5042648;28;20412;-79
2021/12/12 13:36:37;;;;;;;3.40;1.77;;;;;;;;;;5041174;28;20102;-80
2021/12/12 13:39:22;;;;;;;3.05;2.53;;;;;;;;;;5043143;28;20093;-81
2021/12/12 13:41:57;;;;;;;3.47;2.47;;;;;;;;;;5046121;28;20049;-79
2021/12/12 13:44:42;;;;;;;3.15;2.30;;;;;;;;;;5042749;28;20048;-81
2021/12/12 13:47:18;;;;;;;3.33;2.15;;;;;;;;;;5041037;28;20050;-79
2021/12/12 13:49:59;;;;;;;2.92;2.00;;;;;;;;;;5044549;28;20041;-81
2021/12/12 13:52:31;;;;;;;5.25;2.45;;;;;;;;;;5043127;28;20042;-81
2021/12/12 13:55:29;;;;;;;3.67;2.50;;;;;;;;;;5028221;28;20052;-79
2021/12/12 13:58:14;;;;;;;3.38;2.53;;;;;;;;;;5023043;28;20132;-80
2021/12/12 14:00:47;;;;;;;4.43;3.30;;;;;;;;;;5043231;28;20043;-78
2021/12/12 14:03:13;;;;;;;;;;;;;;;;;;5044322;28;20048;-78
2021/12/12 14:05:41;;;;;;;3.65;2.30;;;;;;;;;;5058984;28;19909;-79
2021/12/12 14:08:07;;;;;;;4.70;2.83;;;;;;;;;;5042283;28;20071;-78
2021/12/12 14:10:34;;;;;;;4.10;3.00;;;;;;;;;;5042277;28;20046;-80
2021/12/12 14:13:11;;;;;;;3.92;2.92;;;;;;;;;;5026272;28;20079;-80
2021/12/12 14:15:39;;;;;;;5.43;3.25;;;;;;;;;;5042664;28;20033;-80
2021/12/12 14:18:06;;;;;;;4.20;3.00;;;;;;;;;;5047117;28;20064;-85
2021/12/12 14:20:48;;;;;;;3.72;3.00;;;;;;;;;;5043217;28;20045;-81
2021/12/12 14:23:15;;;;;;;6.13;3.28;;;;;;;;;;5042658;28;20041;-82
2021/12/12 14:25:42;;;;;;;5.68;3.08;;;;;;;;;;5042936;28;20030;-79
2021/12/12 14:28:08;;;;;;;4.13;2.97;;;;;;;;;;5044460;28;20046;-79
2021/12/12 14:30:36;;;;;;;5.30;3.03;;;;;;;;;;5026127;28;20076;-80
2021/12/12 14:33:03;;;;;;;6.30;2.90;;;;;;;;;;5043992;28;20065;-81
2021/12/12 14:35:31;;;;;;;5.88;2.90;;;;;;;;;;5029889;28;20132;-80
2021/12/12 14:37:57;;;;;;;6.60;3.80;;;;;;;;;;5043248;28;20101;-78
2021/12/12 14:40:30;;;;;;;6.15;3.58;;;;;;;;;;5028615;28;20049;-81
2021/12/12 14:42:56;;;;;;;5.25;3.42;;;;;;;;;;5026537;28;20088;-79
2021/12/12 14:45:42;;;;;;;4.13;2.90;;;;;;;;;;5044934;28;20037;-80
2021/12/12 14:48:10;;;;;;;5.40;3.20;;;;;;;;;;5020548;28;20053;-80
2021/12/12 14:50:41;;;;;;;4.93;3.50;;;;;;;;;;5022096;28;20134;-80
2021/12/12 14:53:07;;;;;;;4.15;2.85;;;;;;;;;;5039118;28;20111;-79
2021/12/12 14:55:47;;;;;;;6.93;3.20;;;;;;;;;;5039147;28;20367;-80
2021/12/12 14:58:14;;;;;;;4.38;2.88;;;;;;;;;;5023911;28;20095;-81
2021/12/12 15:00:49;;;;;;;5.50;2.80;;;;;;;;;;5023601;28;20041;-80
2021/12/12 15:03:19;;;;;;;8.23;3.78;;;;;;;;;;5040530;28;20038;-80
2021/12/12 15:05:49;;;;;;;5.20;3.42;;;;;;;;;;5022161;28;20037;-81
2021/12/12 15:08:17;;;;;;;4.72;3.25;;;;;;;;;;5024280;28;20042;-81
2021/12/12 15:10:48;;;;;;;10.35;5.05;;;;;;;;;;5026358;28;20045;-81
2021/12/12 15:13:15;;;;;;;5.80;3.72;;;;;;;;;;5026006;28;20045;-81
2021/12/12 15:15:47;;;;;;;5.13;3.60;;;;;;;;;;5025850;28;20052;-81
2021/12/12 15:18:14;;;;;;;8.90;7.15;;;;;;;;;;5042547;28;20045;-81